Time;durP1;ratioP1;P1;durP2;ratioP2;P2;SDS_P1;SDS_P2;PMS_P1;PMS_P2;Temp;Humidity;BMP_temperature;BMP_pressure;BME280_temperature;BME280_humidity;BME280_pressure;Samples;Min_cycle;Max_cycle;Signal;HPM_P1;HPM_P2
2021/12/24 00:02:23;;;;;;;14.07;4.43;;;;;;;;;;5075403;28;20040;-22
2021/12/24 00:04:49;;;;;;;10.32;4.05;;;;;;;;;;5075385;28;20078;-22
2021/12/24 00:07:15;;;;;;;18.55;3.90;;;;;;;;;;5075459;28;20290;-22
2021/12/24 00:09:41;;;;;;;15.02;5.53;;;;;;;;;;5074418;28;20021;-22
2021/12/24 00:12:14;;;;;;;11.88;3.65;;;;;;;;;;5075604;28;20024;-23
2021/12/24 00:14:45;;;;;;;10.88;3.95;;;;;;;;;;5075352;28;20040;-22
2021/12/24 00:17:14;;;;;;;26.17;3.72;;;;;;;;;;5075297;28;20479;-23
2021/12/24 00:19:55;;;;;;;14.52;3.88;;;;;;;;;;5075470;28;20158;-23
2021/12/24 00:35:05;;;;;;;16.27;4.18;;;;;;;;;;5075388;28;20106;-23
2021/12/24 00:36:16;;;;;;;12.68;3.72;;;;;;;;;;5075335;28;20051;-22
2021/12/24 00:38:42;;;;;;;21.75;3.60;;;;;;;;;;5075418;28;20029;-23
2021/12/24 00:41:08;;;;;;;7.65;3.70;;;;;;;;;;5074907;28;20032;-23
2021/12/24 00:43:34;;;;;;;13.68;4.05;;;;;;;;;;5074855;28;20033;-22
2021/12/24 00:46:01;;;;;;;17.55;4.10;;;;;;;;;;5074811;28;20066;-22
2021/12/24 00:48:27;;;;;;;18.40;3.80;;;;;;;;;;5075066;28;20405;-23
2021/12/24 00:51:18;;;;;;;8.70;3.47;;;;;;;;;;5074789;28;20020;-23
2021/12/24 00:56:13;;;;;;;17.85;5.07;;;;;;;;;;5074708;28;20025;-23
2021/12/24 00:58:40;;;;;;;17.55;4.15;;;;;;;;;;5074995;28;20032;-23
2021/12/24 01:01:07;;;;;;;10.48;3.70;;;;;;;;;;5074923;28;20024;-22
2021/12/24 01:03:33;;;;;;;14.38;3.80;;;;;;;;;;5074545;28;20024;-23
2021/12/24 01:06:04;;;;;;;15.70;3.22;;;;;;;;;;5074476;28;20060;-22
2021/12/24 01:08:31;;;;;;;11.35;2.90;;;;;;;;;;5073647;28;20474;-24
2021/12/24 01:10:58;;;;;;;11.80;3.42;;;;;;;;;;5074787;28;20020;-22
2021/12/24 01:13:25;;;;;;;11.13;3.67;;;;;;;;;;5074429;28;20023;-23
2021/12/24 01:16:06;;;;;;;28.60;3.47;;;;;;;;;;5074450;28;20091;-23
2021/12/24 01:24:08;;;;;;;8.13;2.67;;;;;;;;;;5074519;28;20082;-22
2021/12/24 01:27:52;;;;;;;11.93;3.35;;;;;;;;;;5073074;28;20137;-23
2021/12/24 01:40:26;;;;;;;11.55;4.10;;;;;;;;;;5074498;28;20094;-22
2021/12/24 01:42:53;;;;;;;11.68;4.15;;;;;;;;;;5074403;28;20035;-22
2021/12/24 01:45:29;;;;;;;15.10;4.30;;;;;;;;;;5074343;28;20086;-22
2021/12/24 01:47:57;;;;;;;10.40;3.33;;;;;;;;;;5078223;28;20029;-24
2021/12/24 01:50:24;;;;;;;7.65;3.53;;;;;;;;;;5078157;28;20029;-22
2021/12/24 01:52:51;;;;;;;7.20;3.13;;;;;;;;;;5078308;28;20119;-23
2021/12/24 01:55:18;;;;;;;8.23;2.67;;;;;;;;;;5078273;28;20036;-22
2021/12/24 01:57:45;;;;;;;14.38;3.13;;;;;;;;;;5077031;28;20036;-22
2021/12/24 02:00:13;;;;;;;7.03;2.70;;;;;;;;;;5077960;28;20443;-22
2021/12/24 02:02:39;;;;;;;9.88;3.97;;;;;;;;;;5077876;28;20162;-23
2021/12/24 02:05:06;;;;;;;12.68;3.00;;;;;;;;;;5077792;28;20044;-23
2021/12/24 02:07:32;;;;;;;12.32;4.55;;;;;;;;;;5078079;28;20074;-23
2021/12/24 02:09:58;;;;;;;7.50;3.15;;;;;;;;;;5076780;28;20039;-22
2021/12/24 02:12:26;;;;;;;22.55;4.28;;;;;;;;;;5077702;28;20417;-22
2021/12/24 02:14:55;;;;;;;10.20;3.30;;;;;;;;;;5078170;28;20115;-22
2021/12/24 02:30:43;;;;;;;8.50;3.38;;;;;;;;;;5037492;28;20117;-22
2021/12/24 02:33:09;;;;;;;8.20;2.95;;;;;;;;;;5037369;28;20112;-23
2021/12/24 02:35:36;;;;;;;6.97;2.95;;;;;;;;;;5037671;28;20375;-22
2021/12/24 02:38:04;;;;;;;12.68;3.75;;;;;;;;;;5037904;28;20468;-23
2021/12/24 02:40:31;;;;;;;7.75;3.42;;;;;;;;;;5037551;28;20021;-22
2021/12/24 02:42:58;;;;;;;7.97;2.65;;;;;;;;;;5036604;28;20352;-22
2021/12/24 02:45:26;;;;;;;7.47;2.70;;;;;;;;;;5036194;28;20064;-23
2021/12/24 02:48:09;;;;;;;18.30;3.95;;;;;;;;;;5037721;28;20018;-24
2021/12/24 02:56:08;;;;;;;10.65;2.90;;;;;;;;;;5036979;28;20041;-23
2021/12/24 02:58:42;;;;;;;13.35;3.30;;;;;;;;;;5037189;28;20362;-23
2021/12/24 03:01:08;;;;;;;5.88;2.70;;;;;;;;;;5037178;28;20037;-22
2021/12/24 03:03:35;;;;;;;9.63;2.97;;;;;;;;;;5037123;28;20029;-22
2021/12/24 03:06:01;;;;;;;9.00;3.38;;;;;;;;;;5037036;28;20083;-23
2021/12/24 03:08:27;;;;;;;9.02;3.38;;;;;;;;;;5037064;28;20026;-22
2021/12/24 03:10:55;;;;;;;3.72;2.67;;;;;;;;;;5037019;28;20068;-23
2021/12/24 03:13:22;;;;;;;12.35;5.38;;;;;;;;;;5036923;28;20029;-22
2021/12/24 03:15:51;;;;;;;10.55;5.35;;;;;;;;;;5036949;28;20091;-24
2021/12/24 03:18:25;;;;;;;11.77;3.95;;;;;;;;;;5036855;28;20056;-22
2021/12/24 03:21:07;;;;;;;7.15;2.72;;;;;;;;;;5037074;28;20049;-22
2021/12/24 03:23:38;;;;;;;7.18;2.67;;;;;;;;;;5037162;28;20030;-24
2021/12/24 03:26:05;;;;;;;7.47;2.92;;;;;;;;;;5075707;28;20039;-22
2021/12/24 03:28:31;;;;;;;13.68;4.30;;;;;;;;;;5075330;28;20032;-23
2021/12/24 03:30:59;;;;;;;9.80;2.92;;;;;;;;;;5076605;28;20056;-23
2021/12/24 03:33:25;;;;;;;11.32;2.83;;;;;;;;;;5076188;28;20017;-22
2021/12/24 03:35:51;;;;;;;5.45;3.53;;;;;;;;;;5075224;28;20085;-22
2021/12/24 03:38:17;;;;;;;7.65;3.30;;;;;;;;;;5076411;28;20103;-22
2021/12/24 03:40:44;;;;;;;7.72;2.85;;;;;;;;;;5076108;28;20090;-23
2021/12/24 03:43:11;;;;;;;8.15;3.17;;;;;;;;;;5075950;28;20028;-23
2021/12/24 03:45:42;;;;;;;6.60;3.00;;;;;;;;;;5076134;28;20116;-23
2021/12/24 03:48:18;;;;;;;8.80;3.20;;;;;;;;;;5076215;28;20028;-23
2021/12/24 03:50:57;;;;;;;7.40;3.00;;;;;;;;;;5075847;28;20036;-23
2021/12/24 03:56:07;;;;;;;8.60;2.50;;;;;;;;;;5076104;28;20043;-23
2021/12/24 03:58:34;;;;;;;5.93;3.45;;;;;;;;;;5075494;28;20478;-23
2021/12/24 04:01:00;;;;;;;6.32;2.35;;;;;;;;;;5075693;28;20035;-23
2021/12/24 04:03:26;;;;;;;13.75;3.55;;;;;;;;;;5075640;28;20024;-22
2021/12/24 04:05:52;;;;;;;7.65;2.90;;;;;;;;;;5075489;28;20060;-23
2021/12/24 04:08:18;;;;;;;7.57;3.58;;;;;;;;;;5075249;28;20406;-22
2021/12/24 04:10:45;;;;;;;6.70;2.75;;;;;;;;;;5075680;28;20119;-23
2021/12/24 04:13:12;;;;;;;4.28;2.70;;;;;;;;;;5075669;28;20448;-23
2021/12/24 04:15:39;;;;;;;7.57;2.53;;;;;;;;;;5075360;28;20028;-23
2021/12/24 04:18:43;;;;;;;14.02;3.22;;;;;;;;;;5075636;28;20313;-22
2021/12/24 04:26:29;;;;;;;10.63;4.97;;;;;;;;;;5076027;28;20441;-20
2021/12/24 04:28:55;;;;;;;4.32;2.85;;;;;;;;;;5075681;28;20123;-20
2021/12/24 04:31:27;;;;;;;7.22;2.83;;;;;;;;;;5075038;28;20043;-22
2021/12/24 04:33:58;;;;;;;5.07;3.08;;;;;;;;;;5074990;28;20021;-20
2021/12/24 04:53:22;;;;;;;3.40;2.35;;;;;;;;;;5074604;28;20149;-21
2021/12/24 05:01:21;;;;;;;4.60;3.33;;;;;;;;;;5074685;28;20040;-21
2021/12/24 05:03:48;;;;;;;7.70;3.00;;;;;;;;;;5073413;28;20035;-21
2021/12/24 05:08:55;;;;;;;7.55;3.03;;;;;;;;;;5074841;28;20428;-22
2021/12/24 05:11:22;;;;;;;7.82;3.00;;;;;;;;;;5073646;28;20029;-22
2021/12/24 05:13:49;;;;;;;5.03;2.67;;;;;;;;;;5074329;28;20029;-24
2021/12/24 05:21:33;;;;;;;10.35;3.17;;;;;;;;;;5074827;28;20051;-22
2021/12/24 05:24:00;;;;;;;12.20;3.33;;;;;;;;;;5074268;28;20036;-22
2021/12/24 05:26:26;;;;;;;5.38;2.90;;;;;;;;;;5074639;28;20406;-22
2021/12/24 05:28:53;;;;;;;6.82;2.80;;;;;;;;;;5074322;28;20024;-23
2021/12/24 05:31:22;;;;;;;6.85;3.08;;;;;;;;;;5073590;28;20025;-22
2021/12/24 05:33:48;;;;;;;5.95;3.05;;;;;;;;;;5074150;28;20024;-23
2021/12/24 05:36:14;;;;;;;12.25;3.83;;;;;;;;;;5074143;28;20060;-22
2021/12/24 05:38:40;;;;;;;10.57;3.58;;;;;;;;;;5074311;28;20083;-22
2021/12/24 05:41:07;;;;;;;9.40;3.40;;;;;;;;;;5074023;28;20029;-22
2021/12/24 05:43:33;;;;;;;9.98;2.63;;;;;;;;;;5074048;28;20025;-22
2021/12/24 05:45:59;;;;;;;5.18;2.90;;;;;;;;;;5074569;28;20020;-22
2021/12/24 05:48:25;;;;;;;12.07;2.97;;;;;;;;;;5074016;28;20040;-22
2021/12/24 05:50:51;;;;;;;9.93;3.55;;;;;;;;;;5074055;28;20401;-23
2021/12/24 05:53:18;;;;;;;6.50;3.17;;;;;;;;;;5074039;28;20028;-22
2021/12/24 05:55:44;;;;;;;4.25;2.75;;;;;;;;;;5074021;28;20067;-22
2021/12/24 05:58:10;;;;;;;10.75;5.28;;;;;;;;;;5074158;28;20420;-22
2021/12/24 06:00:38;;;;;;;7.85;3.67;;;;;;;;;;5074197;28;20505;-22
2021/12/24 06:03:06;;;;;;;5.05;3.15;;;;;;;;;;5074100;28;20029;-22
2021/12/24 06:05:33;;;;;;;12.30;3.58;;;;;;;;;;5072822;28;20029;-22
2021/12/24 06:07:59;;;;;;;8.82;2.70;;;;;;;;;;5073931;28;20048;-24
2021/12/24 06:10:26;;;;;;;9.05;3.03;;;;;;;;;;5074148;28;20048;-25
2021/12/24 06:12:52;;;;;;;11.00;3.80;;;;;;;;;;5073719;28;20033;-24
2021/12/24 06:15:23;;;;;;;15.20;3.45;;;;;;;;;;5073638;28;20403;-23
2021/12/24 06:17:51;;;;;;;;;;;;;;;;;;5074143;28;20036;-22
2021/12/24 06:20:18;;;;;;;10.50;2.90;;;;;;;;;;5073794;28;20254;-22
2021/12/24 06:22:44;;;;;;;5.32;3.17;;;;;;;;;;5073483;28;20056;-23
2021/12/24 06:25:10;;;;;;;10.15;3.58;;;;;;;;;;5073490;28;20086;-22
2021/12/24 06:27:37;;;;;;;6.13;2.67;;;;;;;;;;5073631;28;20043;-22
2021/12/24 06:30:05;;;;;;;7.35;3.20;;;;;;;;;;5073425;28;20035;-22
2021/12/24 06:32:31;;;;;;;9.13;3.15;;;;;;;;;;5075133;28;20032;-22
2021/12/24 06:34:57;;;;;;;6.72;3.00;;;;;;;;;;5076161;28;20040;-23
2021/12/24 06:37:24;;;;;;;11.60;3.05;;;;;;;;;;5077329;28;20028;-22
2021/12/24 06:39:50;;;;;;;12.20;3.33;;;;;;;;;;5077747;28;20032;-23
2021/12/24 06:42:17;;;;;;;14.15;3.50;;;;;;;;;;5077054;28;20149;-22
2021/12/24 06:44:43;;;;;;;19.38;3.92;;;;;;;;;;5076978;28;20419;-22
2021/12/24 06:47:09;;;;;;;11.60;3.33;;;;;;;;;;5077001;28;20078;-22
2021/12/24 06:49:36;;;;;;;7.93;3.45;;;;;;;;;;5077197;28;20024;-23
2021/12/24 06:52:03;;;;;;;7.28;3.60;;;;;;;;;;5076807;28;20410;-23
2021/12/24 06:54:31;;;;;;;12.38;3.08;;;;;;;;;;5075855;28;20040;-22
2021/12/24 06:56:58;;;;;;;4.97;3.03;;;;;;;;;;5076812;28;20044;-22
2021/12/24 06:59:24;;;;;;;14.93;4.95;;;;;;;;;;5077019;28;20032;-22
2021/12/24 07:01:50;;;;;;;4.60;3.00;;;;;;;;;;5076880;28;20052;-23
2021/12/24 07:04:16;;;;;;;5.07;3.40;;;;;;;;;;5076580;28;20039;-23
2021/12/24 07:06:45;;;;;;;6.57;3.15;;;;;;;;;;5076605;28;20094;-23
2021/12/24 07:09:13;;;;;;;10.77;3.72;;;;;;;;;;5076826;28;20088;-23
2021/12/24 07:11:39;;;;;;;8.90;3.20;;;;;;;;;;5076443;28;20025;-23
2021/12/24 07:14:06;;;;;;;12.40;3.70;;;;;;;;;;5076267;28;20032;-24
2021/12/24 07:16:32;;;;;;;6.82;3.08;;;;;;;;;;5076505;28;20024;-22
2021/12/24 07:18:58;;;;;;;16.83;4.22;;;;;;;;;;5076451;28;20050;-22
2021/12/24 07:21:24;;;;;;;11.05;2.95;;;;;;;;;;5076346;28;20079;-22
2021/12/24 07:23:51;;;;;;;9.27;2.92;;;;;;;;;;5075692;28;20029;-22
2021/12/24 07:26:17;;;;;;;9.25;3.08;;;;;;;;;;5076372;28;20127;-22
2021/12/24 07:28:43;;;;;;;6.60;2.72;;;;;;;;;;5076073;28;20091;-21
2021/12/24 07:31:09;;;;;;;9.32;3.03;;;;;;;;;;5076301;28;20025;-23
2021/12/24 07:33:36;;;;;;;7.75;3.72;;;;;;;;;;5076005;28;20048;-21
2021/12/24 07:36:02;;;;;;;8.60;2.90;;;;;;;;;;5075894;28;20102;-23
2021/12/24 07:38:28;;;;;;;6.65;2.90;;;;;;;;;;5075806;28;20031;-22
2021/12/24 07:40:54;;;;;;;13.98;3.80;;;;;;;;;;5075797;28;20036;-22
2021/12/24 07:43:20;;;;;;;17.40;4.32;;;;;;;;;;5075916;28;20036;-23
2021/12/24 07:45:49;;;;;;;8.80;2.83;;;;;;;;;;5075870;28;20029;-22
2021/12/24 07:48:15;;;;;;;9.13;2.92;;;;;;;;;;5075993;28;20020;-22
2021/12/24 07:53:13;;;;;;;9.55;2.75;;;;;;;;;;5075685;28;20021;-21
2021/12/24 07:55:40;;;;;;;10.55;3.65;;;;;;;;;;5074603;28;20108;-23
2021/12/24 07:58:08;;;;;;;7.97;3.15;;;;;;;;;;5074588;28;20028;-22
2021/12/24 08:00:34;;;;;;;4.57;2.65;;;;;;;;;;5075825;28;20107;-23
2021/12/24 08:03:02;;;;;;;8.65;3.75;;;;;;;;;;5075460;28;20055;-22
2021/12/24 08:05:29;;;;;;;9.15;3.50;;;;;;;;;;5075433;28;20039;-22
2021/12/24 08:07:55;;;;;;;11.77;3.33;;;;;;;;;;5075698;28;20048;-22
2021/12/24 08:10:23;;;;;;;5.55;3.58;;;;;;;;;;5074475;28;20037;-22
2021/12/24 08:12:50;;;;;;;6.15;3.20;;;;;;;;;;5075610;28;20021;-22
2021/12/24 08:15:17;;;;;;;13.25;3.38;;;;;;;;;;5074484;28;20039;-23
2021/12/24 08:17:44;;;;;;;15.30;3.40;;;;;;;;;;5074916;28;20032;-22
2021/12/24 08:20:11;;;;;;;13.07;3.47;;;;;;;;;;5074841;28;20036;-22
2021/12/24 08:22:37;;;;;;;11.73;3.67;;;;;;;;;;5074577;28;20028;-22
2021/12/24 08:25:08;;;;;;;12.70;3.40;;;;;;;;;;5074800;28;20400;-22
2021/12/24 08:27:38;;;;;;;6.30;3.15;;;;;;;;;;5074866;28;20451;-22
2021/12/24 08:30:05;;;;;;;7.60;2.65;;;;;;;;;;5075623;28;20028;-22
2021/12/24 08:32:31;;;;;;;9.20;4.03;;;;;;;;;;5075064;28;20017;-22
2021/12/24 08:34:58;;;;;;;9.10;3.65;;;;;;;;;;5074796;28;20032;-23
2021/12/24 08:37:24;;;;;;;14.15;3.67;;;;;;;;;;5074851;28;20104;-23
2021/12/24 08:39:51;;;;;;;9.73;3.28;;;;;;;;;;5075256;28;20039;-22
2021/12/24 08:42:17;;;;;;;10.57;3.55;;;;;;;;;;5074696;28;20021;-22
2021/12/24 08:44:44;;;;;;;8.75;3.65;;;;;;;;;;5075187;28;20028;-22
2021/12/24 08:47:10;;;;;;;10.35;3.85;;;;;;;;;;5074989;28;20091;-22
2021/12/24 08:49:36;;;;;;;7.65;3.45;;;;;;;;;;5074978;28;20021;-23
2021/12/24 08:52:04;;;;;;;12.25;3.88;;;;;;;;;;5074649;28;20016;-23
2021/12/24 08:54:30;;;;;;;11.63;4.10;;;;;;;;;;5074276;28;20086;-23
2021/12/24 08:56:56;;;;;;;13.98;4.50;;;;;;;;;;5074487;28;20035;-22
2021/12/24 08:59:23;;;;;;;6.60;3.53;;;;;;;;;;5074915;28;20059;-22
2021/12/24 09:01:50;;;;;;;12.40;3.78;;;;;;;;;;5074215;28;20020;-22
2021/12/24 09:04:16;;;;;;;12.23;3.97;;;;;;;;;;5073168;28;20469;-23
2021/12/24 09:06:43;;;;;;;8.88;3.17;;;;;;;;;;5074249;28;20047;-22
2021/12/24 09:09:10;;;;;;;10.15;4.18;;;;;;;;;;5074241;28;20349;-22
2021/12/24 09:11:41;;;;;;;16.10;3.17;;;;;;;;;;5074441;28;20033;-26
2021/12/24 09:14:07;;;;;;;9.50;3.53;;;;;;;;;;5074852;28;20028;-22
2021/12/24 09:16:34;;;;;;;6.68;3.42;;;;;;;;;;5073209;28;20099;-22
2021/12/24 09:19:05;;;;;;;13.30;3.63;;;;;;;;;;5073280;28;20050;-22
2021/12/24 09:21:33;;;;;;;;;;;;;;;;;;5074919;28;20440;-22
2021/12/24 09:23:59;;;;;;;6.43;3.28;;;;;;;;;;5073937;28;20255;-22
2021/12/24 09:26:29;;;;;;;12.90;3.58;;;;;;;;;;5074372;28;20061;-21
2021/12/24 09:28:58;;;;;;;12.43;4.03;;;;;;;;;;5074319;28;20036;-21
2021/12/24 09:31:25;;;;;;;7.82;3.22;;;;;;;;;;5074295;28;20044;-21
2021/12/24 09:33:52;;;;;;;23.65;6.05;;;;;;;;;;5073921;28;20029;-22
2021/12/24 09:36:24;;;;;;;17.27;3.40;;;;;;;;;;5072941;28;20116;-23
2021/12/24 09:38:51;;;;;;;15.35;4.20;;;;;;;;;;5073873;28;20021;-23
2021/12/24 09:41:17;;;;;;;10.23;4.35;;;;;;;;;;5074191;28;20021;-22
2021/12/24 09:43:43;;;;;;;16.08;4.72;;;;;;;;;;5074655;28;20111;-22
2021/12/24 09:46:11;;;;;;;11.15;3.45;;;;;;;;;;5073823;28;20024;-23
2021/12/24 09:48:38;;;;;;;13.98;3.75;;;;;;;;;;5073866;28;20028;-22
2021/12/24 09:51:04;;;;;;;7.18;3.42;;;;;;;;;;5073873;28;20029;-22
2021/12/24 09:53:30;;;;;;;8.63;3.65;;;;;;;;;;5073834;28;20024;-23
2021/12/24 09:55:56;;;;;;;6.25;3.25;;;;;;;;;;5073763;28;20024;-22
2021/12/24 09:58:22;;;;;;;12.98;3.97;;;;;;;;;;5073800;28;20099;-23
2021/12/24 10:00:49;;;;;;;11.15;3.88;;;;;;;;;;5074057;28;20127;-22
2021/12/24 10:03:29;;;;;;;8.52;3.85;;;;;;;;;;5073864;28;20056;-23
2021/12/24 10:05:55;;;;;;;10.13;3.45;;;;;;;;;;5073710;28;20039;-22
2021/12/24 10:08:22;;;;;;;9.82;3.70;;;;;;;;;;5077199;28;20048;-22
2021/12/24 10:10:51;;;;;;;13.30;4.93;;;;;;;;;;5077660;28;20443;-26
2021/12/24 10:13:47;;;;;;;8.77;4.30;;;;;;;;;;5077656;28;20075;-22
2021/12/24 10:16:17;;;;;;;9.40;4.38;;;;;;;;;;5064727;28;20040;-22
2021/12/24 10:19:02;;;;;;;19.55;4.30;;;;;;;;;;5077516;28;20021;-22
2021/12/24 10:21:29;;;;;;;8.02;4.20;;;;;;;;;;5077385;28;20037;-22
2021/12/24 10:23:57;;;;;;;17.15;4.55;;;;;;;;;;5077197;28;20032;-22
2021/12/24 10:26:26;;;;;;;9.10;4.55;;;;;;;;;;5076231;28;20293;-22
2021/12/24 10:28:54;;;;;;;9.68;4.28;;;;;;;;;;5077476;28;20393;-23
2021/12/24 10:31:21;;;;;;;8.60;3.65;;;;;;;;;;5076414;28;20325;-23
2021/12/24 10:34:05;;;;;;;18.75;4.22;;;;;;;;;;5077081;28;20025;-23
2021/12/24 10:36:32;;;;;;;17.02;4.07;;;;;;;;;;5077383;28;20410;-22
2021/12/24 10:38:58;;;;;;;17.95;5.13;;;;;;;;;;5077033;28;20025;-22
2021/12/24 10:41:25;;;;;;;16.75;4.13;;;;;;;;;;5077077;28;20054;-22
2021/12/24 10:43:52;;;;;;;11.52;4.13;;;;;;;;;;5076932;28;20510;-22
2021/12/24 10:46:20;;;;;;;12.18;4.75;;;;;;;;;;5076911;28;20032;-22
2021/12/24 10:49:07;;;;;;;18.23;4.72;;;;;;;;;;5076893;28;20447;-22
2021/12/24 10:51:54;;;;;;;9.43;4.30;;;;;;;;;;5077077;28;20097;-22
2021/12/24 10:54:21;;;;;;;12.10;4.30;;;;;;;;;;5077049;28;20428;-22
2021/12/24 10:56:47;;;;;;;15.25;4.28;;;;;;;;;;5076991;28;20025;-23
2021/12/24 10:59:13;;;;;;;16.13;3.97;;;;;;;;;;5076896;28;20090;-22
2021/12/24 11:01:39;;;;;;;18.30;4.95;;;;;;;;;;5076594;28;20027;-21
2021/12/24 11:04:06;;;;;;;17.20;5.20;;;;;;;;;;5076340;28;20036;-22
2021/12/24 11:06:32;;;;;;;15.32;4.60;;;;;;;;;;5076429;28;20043;-22
2021/12/24 11:09:00;;;;;;;9.48;4.20;;;;;;;;;;5076526;28;20364;-22
2021/12/24 11:11:35;;;;;;;22.70;4.18;;;;;;;;;;5076452;28;20024;-22
2021/12/24 11:14:01;;;;;;;12.98;5.32;;;;;;;;;;5076392;28;20456;-24
2021/12/24 11:16:27;;;;;;;15.45;4.50;;;;;;;;;;5076379;28;20082;-22
2021/12/24 11:18:55;;;;;;;16.35;4.47;;;;;;;;;;5076338;28;20086;-23
2021/12/24 11:21:26;;;;;;;17.85;4.93;;;;;;;;;;5076347;28;20373;-22
2021/12/24 11:23:53;;;;;;;31.75;5.45;;;;;;;;;;5074882;28;20051;-22
2021/12/24 11:26:20;;;;;;;16.48;4.50;;;;;;;;;;5076096;28;20101;-22
2021/12/24 11:28:47;;;;;;;9.85;4.50;;;;;;;;;;5076136;28;20025;-23
2021/12/24 11:31:14;;;;;;;7.55;5.10;;;;;;;;;;5076210;28;20028;-23
2021/12/24 11:33:42;;;;;;;12.10;3.85;;;;;;;;;;5076068;28;20028;-22
2021/12/24 11:36:09;;;;;;;14.13;4.00;;;;;;;;;;5076085;28;20039;-23
2021/12/24 11:38:40;;;;;;;12.48;3.58;;;;;;;;;;5075988;28;20108;-23
2021/12/24 11:41:10;;;;;;;13.45;4.13;;;;;;;;;;5076307;28;20024;-23
2021/12/24 11:43:37;;;;;;;11.73;4.50;;;;;;;;;;5076086;28;20154;-22
2021/12/24 11:46:05;;;;;;;21.00;4.25;;;;;;;;;;5075863;28;20086;-22
2021/12/24 11:48:33;;;;;;;12.65;4.13;;;;;;;;;;5076588;28;20028;-23
2021/12/24 11:51:07;;;;;;;16.17;5.07;;;;;;;;;;5076035;28;20417;-21
2021/12/24 11:53:33;;;;;;;14.07;5.57;;;;;;;;;;5075933;28;20027;-22
2021/12/24 11:56:07;;;;;;;11.48;4.68;;;;;;;;;;5074870;28;20366;-22
2021/12/24 11:58:41;;;;;;;10.05;4.40;;;;;;;;;;5075832;28;20032;-21
2021/12/24 12:01:07;;;;;;;16.08;4.50;;;;;;;;;;5076098;28;20035;-21
2021/12/24 12:03:35;;;;;;;14.48;4.15;;;;;;;;;;5075876;28;20029;-22
2021/12/24 12:06:04;;;;;;;28.58;5.13;;;;;;;;;;5074466;28;20025;-21
2021/12/24 12:08:37;;;;;;;20.77;4.15;;;;;;;;;;5076051;28;20031;-22
2021/12/24 12:11:07;;;;;;;20.08;3.78;;;;;;;;;;5075871;28;20124;-22
2021/12/24 12:13:36;;;;;;;17.20;4.07;;;;;;;;;;5075619;28;20035;-23
2021/12/24 12:16:02;;;;;;;21.38;4.28;;;;;;;;;;5075835;28;20055;-21
2021/12/24 12:18:30;;;;;;;15.23;4.25;;;;;;;;;;5075727;28;20043;-22
2021/12/24 12:21:38;;;;;;;14.75;4.18;;;;;;;;;;5075521;28;20036;-21
2021/12/24 12:26:43;;;;;;;11.13;4.03;;;;;;;;;;5075173;28;20149;-22
2021/12/24 12:29:27;;;;;;;12.27;4.25;;;;;;;;;;5074916;28;20029;-22
2021/12/24 12:31:54;;;;;;;18.00;5.18;;;;;;;;;;5075014;28;20031;-23
2021/12/24 12:34:38;;;;;;;8.80;3.67;;;;;;;;;;5075100;28;20043;-22
2021/12/24 12:37:15;;;;;;;18.67;4.50;;;;;;;;;;5074086;28;20507;-22
2021/12/24 12:39:42;;;;;;;23.38;4.82;;;;;;;;;;5075387;28;20188;-24
2021/12/24 12:42:08;;;;;;;18.05;5.07;;;;;;;;;;5074902;28;20055;-21
2021/12/24 12:44:37;;;;;;;40.53;5.55;;;;;;;;;;5074560;28;20036;-23
2021/12/24 12:47:21;;;;;;;14.00;4.35;;;;;;;;;;5074850;28;20021;-23
2021/12/24 12:49:48;;;;;;;8.98;3.60;;;;;;;;;;5074612;28;20033;-22
2021/12/24 12:52:20;;;;;;;14.63;5.13;;;;;;;;;;5074542;28;20052;-22
2021/12/24 12:54:56;;;;;;;17.58;4.35;;;;;;;;;;5075059;28;20029;-23
2021/12/24 12:57:36;;;;;;;15.90;4.43;;;;;;;;;;5074719;28;20040;-22
2021/12/24 13:00:17;;;;;;;17.50;4.95;;;;;;;;;;5074564;28;20067;-24
2021/12/24 13:03:01;;;;;;;17.13;3.65;;;;;;;;;;5074627;28;20032;-23
2021/12/24 13:05:29;;;;;;;27.23;6.10;;;;;;;;;;5075286;28;20060;-24
2021/12/24 13:07:59;;;;;;;29.48;5.95;;;;;;;;;;5074768;28;20025;-23
2021/12/24 13:10:26;;;;;;;17.88;6.32;;;;;;;;;;5074400;28;20039;-21
2021/12/24 13:13:03;;;;;;;13.77;5.00;;;;;;;;;;5074361;28;20056;-21
2021/12/24 13:15:31;;;;;;;23.05;6.43;;;;;;;;;;5074650;28;20034;-23
2021/12/24 13:18:02;;;;;;;9.77;4.43;;;;;;;;;;5075126;28;20020;-21
2021/12/24 13:20:46;;;;;;;13.73;5.80;;;;;;;;;;5074749;28;20055;-22
2021/12/24 13:23:22;;;;;;;15.00;4.72;;;;;;;;;;5075001;28;20020;-26
2021/12/24 13:25:48;;;;;;;12.48;4.05;;;;;;;;;;5074067;28;20036;-21
2021/12/24 13:28:14;;;;;;;21.67;5.70;;;;;;;;;;5075369;28;20142;-21
2021/12/24 13:30:40;;;;;;;14.57;4.05;;;;;;;;;;5074261;28;20024;-21
2021/12/24 13:33:08;;;;;;;19.17;5.18;;;;;;;;;;5074192;28;20017;-21
2021/12/24 13:35:39;;;;;;;22.85;5.40;;;;;;;;;;5074185;28;20033;-21
2021/12/24 13:38:11;;;;;;;38.97;7.55;;;;;;;;;;5074327;28;20515;-21
2021/12/24 13:40:37;;;;;;;26.48;7.30;;;;;;;;;;5075172;28;20068;-20
2021/12/24 13:43:08;;;;;;;15.38;4.68;;;;;;;;;;5078251;28;20063;-21
2021/12/24 13:45:38;;;;;;;15.40;4.75;;;;;;;;;;5077521;28;20028;-22
2021/12/24 13:48:11;;;;;;;17.20;5.18;;;;;;;;;;5078597;28;20025;-22
2021/12/24 13:56:16;;;;;;;17.45;5.13;;;;;;;;;;5078440;28;20039;-24
2021/12/24 13:58:50;;;;;;;17.25;6.05;;;;;;;;;;5078173;28;20060;-23
2021/12/24 14:01:16;;;;;;;19.27;5.05;;;;;;;;;;5078180;28;20039;-24
2021/12/24 14:03:42;;;;;;;12.52;3.75;;;;;;;;;;5078138;28;20036;-21
2021/12/24 14:06:10;;;;;;;11.90;5.68;;;;;;;;;;5078051;28;20040;-21
2021/12/24 14:08:37;;;;;;;10.60;3.60;;;;;;;;;;5078046;28;20020;-22
2021/12/24 14:11:06;;;;;;;18.00;4.57;;;;;;;;;;5078283;28;20172;-22
2021/12/24 14:13:37;;;;;;;11.45;4.60;;;;;;;;;;5078141;28;20400;-22
2021/12/24 14:16:59;;;;;;;22.35;4.88;;;;;;;;;;5078258;28;20032;-21
2021/12/24 14:18:53;;;;;;;30.92;5.75;;;;;;;;;;5070962;28;20044;-22
2021/12/24 14:24:11;;;;;;;14.32;5.68;;;;;;;;;;5077527;28;20059;-22
2021/12/24 14:26:38;;;;;;;11.30;5.65;;;;;;;;;;5077697;28;20029;-23
2021/12/24 14:29:06;;;;;;;25.83;5.07;;;;;;;;;;5077940;28;20024;-21
2021/12/24 14:31:51;;;;;;;16.38;4.70;;;;;;;;;;5077571;28;20024;-22
2021/12/24 14:34:30;;;;;;;16.42;5.38;;;;;;;;;;5077814;28;20047;-21
2021/12/24 14:37:00;;;;;;;24.35;4.97;;;;;;;;;;5078524;28;20343;-22
2021/12/24 14:39:26;;;;;;;17.48;4.88;;;;;;;;;;5077944;28;20086;-21
2021/12/24 14:42:08;;;;;;;22.50;5.60;;;;;;;;;;5077326;28;20020;-21
2021/12/24 14:44:34;;;;;;;14.77;4.30;;;;;;;;;;5077295;28;20580;-21
2021/12/24 14:47:00;;;;;;;15.63;4.45;;;;;;;;;;5077619;28;20017;-21
2021/12/24 14:49:37;;;;;;;13.38;3.95;;;;;;;;;;5077232;28;20017;-22
2021/12/24 14:52:16;;;;;;;16.10;4.75;;;;;;;;;;5077137;28;20028;-21
2021/12/24 14:55:00;;;;;;;21.23;5.63;;;;;;;;;;5077107;28;20032;-21
2021/12/24 14:57:27;;;;;;;17.63;4.72;;;;;;;;;;5077100;28;20033;-21
2021/12/24 14:59:53;;;;;;;12.05;4.40;;;;;;;;;;5077050;28;20040;-21
2021/12/24 15:02:19;;;;;;;16.48;4.63;;;;;;;;;;5077525;28;20529;-22
2021/12/24 15:04:54;;;;;;;14.77;4.57;;;;;;;;;;5076992;28;20209;-21
2021/12/24 15:07:28;;;;;;;25.90;5.75;;;;;;;;;;5076980;28;20024;-21
2021/12/24 15:10:08;;;;;;;9.70;4.82;;;;;;;;;;5077191;28;20020;-22
2021/12/24 15:12:40;;;;;;;12.00;4.35;;;;;;;;;;5077099;28;20086;-22
2021/12/24 15:15:06;;;;;;;16.38;4.53;;;;;;;;;;5077097;28;20033;-21
2021/12/24 15:17:39;;;;;;;12.63;3.60;;;;;;;;;;5077276;28;20103;-21
2021/12/24 15:20:05;;;;;;;15.88;4.10;;;;;;;;;;5076763;28;20038;-21
2021/12/24 15:22:32;;;;;;;14.13;5.05;;;;;;;;;;5075777;28;20064;-21
2021/12/24 15:24:58;;;;;;;14.43;4.65;;;;;;;;;;5076782;28;20040;-22
2021/12/24 15:27:31;;;;;;;15.80;5.03;;;;;;;;;;5077201;28;20087;-21
2021/12/24 15:29:57;;;;;;;14.68;3.72;;;;;;;;;;5076524;28;20024;-22
2021/12/24 15:32:23;;;;;;;10.48;4.57;;;;;;;;;;5076442;28;20421;-21
2021/12/24 15:34:50;;;;;;;16.33;5.22;;;;;;;;;;5076670;28;20333;-22
2021/12/24 15:37:16;;;;;;;16.63;4.13;;;;;;;;;;5076411;28;20036;-22
2021/12/24 15:39:42;;;;;;;16.35;4.72;;;;;;;;;;5076412;28;20050;-21
2021/12/24 15:42:09;;;;;;;11.50;4.25;;;;;;;;;;5076239;28;20062;-21
2021/12/24 15:44:41;;;;;;;12.18;4.85;;;;;;;;;;5076436;28;20157;-22
2021/12/24 15:47:07;;;;;;;19.55;4.38;;;;;;;;;;5076741;28;20054;-21
2021/12/24 15:49:33;;;;;;;26.52;5.15;;;;;;;;;;5076162;28;20025;-22
2021/12/24 15:52:00;;;;;;;11.15;4.45;;;;;;;;;;5076341;28;20020;-21
2021/12/24 15:54:26;;;;;;;8.50;4.28;;;;;;;;;;5075739;28;20053;-22
2021/12/24 15:56:52;;;;;;;17.60;4.75;;;;;;;;;;5076021;28;20462;-22
2021/12/24 15:59:18;;;;;;;20.83;4.45;;;;;;;;;;5076040;28;20413;-21
2021/12/24 16:01:45;;;;;;;9.88;4.15;;;;;;;;;;5076318;28;20115;-22
2021/12/24 16:04:12;;;;;;;16.55;4.53;;;;;;;;;;5075291;28;20020;-21
2021/12/24 16:06:38;;;;;;;16.85;5.45;;;;;;;;;;5075528;28;20136;-22
2021/12/24 16:09:04;;;;;;;15.50;4.47;;;;;;;;;;5075782;28;20333;-22
2021/12/24 16:11:30;;;;;;;11.20;5.28;;;;;;;;;;5075760;28;20048;-21
2021/12/24 16:13:56;;;;;;;12.25;4.28;;;;;;;;;;5075632;28;20024;-21
2021/12/24 16:16:25;;;;;;;13.18;4.32;;;;;;;;;;5076197;28;20081;-21
2021/12/24 16:18:52;;;;;;;12.50;4.20;;;;;;;;;;5075595;28;20031;-22
2021/12/24 16:21:19;;;;;;;14.52;4.75;;;;;;;;;;5075768;28;20029;-21
2021/12/24 16:23:45;;;;;;;8.40;5.05;;;;;;;;;;5075257;28;20032;-22
2021/12/24 16:26:11;;;;;;;23.05;4.05;;;;;;;;;;5075669;28;20025;-22
2021/12/24 16:28:37;;;;;;;7.60;3.88;;;;;;;;;;5075424;28;20328;-22